Aviation Digital Data Service (ADDS)

Output produced by METARs form (1815 UTC 24 June 2019)
found at http://www.aviationweather.gov/metar/data/
 
METAR text: VERC 241800Z 20003KT 4000 HZ FEW100 27/24 Q1008 NOSIG
Conditions at: VERC (RANCHI , IN) observed 1800 UTC 24 June 2019
Temperature: 27.0°C (81°F)
Dewpoint: 24.0°C (75°F) [RH = 84%]
Pressure (altimeter): 29.76 inches Hg (1008.0 mb)
Winds: from the SSW (200 degrees) at 3 MPH (3 knots; 1.5 m/s)
Visibility: 2.49 miles (4.01 km)
Ceiling: at least 12,000 feet AGL
Clouds: few clouds at 10000 feet AGL
Weather: HZ  (haze)

METAR text: VERC 241700Z 20003KT 4000 HZ FEW100 29/23 Q1008 NOSIG
Conditions at: VERC (RANCHI , IN) observed 1700 UTC 24 June 2019
Temperature: 29.0°C (84°F)
Dewpoint: 23.0°C (73°F) [RH = 70%]
Pressure (altimeter): 29.76 inches Hg (1008.0 mb)
Winds: from the SSW (200 degrees) at 3 MPH (3 knots; 1.5 m/s)
Visibility: 2.49 miles (4.01 km)
Ceiling: at least 12,000 feet AGL
Clouds: few clouds at 10000 feet AGL
Weather: HZ  (haze)

METAR text: VERC 241600Z 21003KT 4000 HZ FEW100 29/23 Q1008 NOSIG
Conditions at: VERC (RANCHI , IN) observed 1600 UTC 24 June 2019
Temperature: 29.0°C (84°F)
Dewpoint: 23.0°C (73°F) [RH = 70%]
Pressure (altimeter): 29.76 inches Hg (1008.0 mb)
Winds: from the SSW (210 degrees) at 3 MPH (3 knots; 1.5 m/s)
Visibility: 2.49 miles (4.01 km)
Ceiling: at least 12,000 feet AGL
Clouds: few clouds at 10000 feet AGL
Weather: HZ  (haze)

METAR text: VERC 241530Z 20003KT 4000 HZ FEW100 29/23 Q1007 NOSIG
Conditions at: VERC (RANCHI , IN) observed 1530 UTC 24 June 2019
Temperature: 29.0°C (84°F)
Dewpoint: 23.0°C (73°F) [RH = 70%]
Pressure (altimeter): 29.73 inches Hg (1007.0 mb)
Winds: from the SSW (200 degrees) at 3 MPH (3 knots; 1.5 m/s)
Visibility: 2.49 miles (4.01 km)
Ceiling: at least 12,000 feet AGL
Clouds: few clouds at 10000 feet AGL
Weather: HZ  (haze)

METAR text: VERC 241500Z 20003KT 4000 HZ FEW100 29/23 Q1007 NOSIG
Conditions at: VERC (RANCHI , IN) observed 1500 UTC 24 June 2019
Temperature: 29.0°C (84°F)
Dewpoint: 23.0°C (73°F) [RH = 70%]
Pressure (altimeter): 29.73 inches Hg (1007.0 mb)
Winds: from the SSW (200 degrees) at 3 MPH (3 knots; 1.5 m/s)
Visibility: 2.49 miles (4.01 km)
Ceiling: at least 12,000 feet AGL
Clouds: few clouds at 10000 feet AGL
Weather: HZ  (haze)

METAR text: VERC 241430Z 19003KT 4000 HZ FEW100 30/23 Q1007 NOSIG
Conditions at: VERC (RANCHI , IN) observed 1430 UTC 24 June 2019
Temperature: 30.0°C (86°F)
Dewpoint: 23.0°C (73°F) [RH = 66%]
Pressure (altimeter): 29.73 inches Hg (1007.0 mb)
Winds: from the S (190 degrees) at 3 MPH (3 knots; 1.5 m/s)
Visibility: 2.49 miles (4.01 km)
Ceiling: at least 12,000 feet AGL
Clouds: few clouds at 10000 feet AGL
Weather: HZ  (haze)

METAR text: VERC 241400Z 18004KT 4000 HZ FEW100 30/23 Q1007 NOSIG
Conditions at: VERC (RANCHI , IN) observed 1400 UTC 24 June 2019
Temperature: 30.0°C (86°F)
Dewpoint: 23.0°C (73°F) [RH = 66%]
Pressure (altimeter): 29.73 inches Hg (1007.0 mb)
Winds: from the S (180 degrees) at 5 MPH (4 knots; 2.1 m/s)
Visibility: 2.49 miles (4.01 km)
Ceiling: at least 12,000 feet AGL
Clouds: few clouds at 10000 feet AGL
Weather: HZ  (haze)

METAR text: VERC 241330Z 18004KT 4000 HZ FEW020 SCT100 31/23 Q1006 NOSIG
Conditions at: VERC (RANCHI , IN) observed 1330 UTC 24 June 2019
Temperature: 31.0°C (88°F)
Dewpoint: 23.0°C (73°F) [RH = 63%]
Pressure (altimeter): 29.70 inches Hg (1006.0 mb)
Winds: from the S (180 degrees) at 5 MPH (4 knots; 2.1 m/s)
Visibility: 2.49 miles (4.01 km)
Ceiling: at least 12,000 feet AGL
Clouds: few clouds at 2000 feet AGL
scattered clouds at 10000 feet AGL
Weather: HZ  (haze)

METAR text: VERC 241300Z 21003KT 4000 HZ SCT100 32/24 Q1006 NOSIG
Conditions at: VERC (RANCHI , IN) observed 1300 UTC 24 June 2019
Temperature: 32.0°C (90°F)
Dewpoint: 24.0°C (75°F) [RH = 63%]
Pressure (altimeter): 29.70 inches Hg (1006.0 mb)
Winds: from the SSW (210 degrees) at 3 MPH (3 knots; 1.5 m/s)
Visibility: 2.49 miles (4.01 km)
Ceiling: at least 12,000 feet AGL
Clouds: scattered clouds at 10000 feet AGL
Weather: HZ  (haze)

METAR text: VERC 241230Z 21003KT 4000 HZ FEW020 SCT100 32/24 Q1006 NOSIG
Conditions at: VERC (RANCHI , IN) observed 1230 UTC 24 June 2019
Temperature: 32.0°C (90°F)
Dewpoint: 24.0°C (75°F) [RH = 63%]
Pressure (altimeter): 29.70 inches Hg (1006.0 mb)
Winds: from the SSW (210 degrees) at 3 MPH (3 knots; 1.5 m/s)
Visibility: 2.49 miles (4.01 km)
Ceiling: at least 12,000 feet AGL
Clouds: few clouds at 2000 feet AGL
scattered clouds at 10000 feet AGL
Weather: HZ  (haze)

METAR text: VERC 241200Z 20003KT 4000 HZ SCT020 SCT025 33/23 Q1006 NOSIG
Conditions at: VERC (RANCHI , IN) observed 1200 UTC 24 June 2019
Temperature: 33.0°C (91°F)
Dewpoint: 23.0°C (73°F) [RH = 56%]
Pressure (altimeter): 29.70 inches Hg (1006.0 mb)
Winds: from the SSW (200 degrees) at 3 MPH (3 knots; 1.5 m/s)
Visibility: 2.49 miles (4.01 km)
Ceiling: at least 12,000 feet AGL
Clouds: scattered clouds at 2000 feet AGL
scattered clouds at 2500 feet AGL
Weather: HZ  (haze)

METAR text: VERC 241130Z 22003KT 4000 HZ SCT020 SCT025 33/25 Q1006 NOSIG
Conditions at: VERC (RANCHI , IN) observed 1130 UTC 24 June 2019
Temperature: 33.0°C (91°F)
Dewpoint: 25.0°C (77°F) [RH = 63%]
Pressure (altimeter): 29.70 inches Hg (1006.0 mb)
Winds: from the SW (220 degrees) at 3 MPH (3 knots; 1.5 m/s)
Visibility: 2.49 miles (4.01 km)
Ceiling: at least 12,000 feet AGL
Clouds: scattered clouds at 2000 feet AGL
scattered clouds at 2500 feet AGL
Weather: HZ  (haze)

METAR text: VERC 241100Z 20004KT 4000 HZ SCT020 SCT025 33/25 Q1006 NOSIG
Conditions at: VERC (RANCHI , IN) observed 1100 UTC 24 June 2019
Temperature: 33.0°C (91°F)
Dewpoint: 25.0°C (77°F) [RH = 63%]
Pressure (altimeter): 29.70 inches Hg (1006.0 mb)
Winds: from the SSW (200 degrees) at 5 MPH (4 knots; 2.1 m/s)
Visibility: 2.49 miles (4.01 km)
Ceiling: at least 12,000 feet AGL
Clouds: scattered clouds at 2000 feet AGL
scattered clouds at 2500 feet AGL
Weather: HZ  (haze)

METAR text: VERC 241030Z 21004KT 4000 HZ SCT020 SCT025 33/25 Q1006 NOSIG
Conditions at: VERC (RANCHI , IN) observed 1030 UTC 24 June 2019
Temperature: 33.0°C (91°F)
Dewpoint: 25.0°C (77°F) [RH = 63%]
Pressure (altimeter): 29.70 inches Hg (1006.0 mb)
Winds: from the SSW (210 degrees) at 5 MPH (4 knots; 2.1 m/s)
Visibility: 2.49 miles (4.01 km)
Ceiling: at least 12,000 feet AGL
Clouds: scattered clouds at 2000 feet AGL
scattered clouds at 2500 feet AGL
Weather: HZ  (haze)

METAR text: VERC 241000Z 23004KT 4000 HZ SCT020 SCT025 34/24 Q1007 NOSIG
Conditions at: VERC (RANCHI , IN) observed 1000 UTC 24 June 2019
Temperature: 34.0°C (93°F)
Dewpoint: 24.0°C (75°F) [RH = 56%]
Pressure (altimeter): 29.73 inches Hg (1007.0 mb)
Winds: from the SW (230 degrees) at 5 MPH (4 knots; 2.1 m/s)
Visibility: 2.49 miles (4.01 km)
Ceiling: at least 12,000 feet AGL
Clouds: scattered clouds at 2000 feet AGL
scattered clouds at 2500 feet AGL
Weather: HZ  (haze)

METAR text: VERC 240930Z 23004KT 4000 HZ SCT018 SCT025 34/24 Q1007 NOSIG
Conditions at: VERC (RANCHI , IN) observed 0930 UTC 24 June 2019
Temperature: 34.0°C (93°F)
Dewpoint: 24.0°C (75°F) [RH = 56%]
Pressure (altimeter): 29.73 inches Hg (1007.0 mb)
Winds: from the SW (230 degrees) at 5 MPH (4 knots; 2.1 m/s)
Visibility: 2.49 miles (4.01 km)
Ceiling: at least 12,000 feet AGL
Clouds: scattered clouds at 1800 feet AGL
scattered clouds at 2500 feet AGL
Weather: HZ  (haze)

METAR text: VERC 240900Z 18004KT 4000 HZ SCT018 SCT025 34/24 Q1007 NOSIG
Conditions at: VERC (RANCHI , IN) observed 0900 UTC 24 June 2019
Temperature: 34.0°C (93°F)
Dewpoint: 24.0°C (75°F) [RH = 56%]
Pressure (altimeter): 29.73 inches Hg (1007.0 mb)
Winds: from the S (180 degrees) at 5 MPH (4 knots; 2.1 m/s)
Visibility: 2.49 miles (4.01 km)
Ceiling: at least 12,000 feet AGL
Clouds: scattered clouds at 1800 feet AGL
scattered clouds at 2500 feet AGL
Weather: HZ  (haze)

METAR text: VERC 240830Z 19004KT 4000 HZ SCT018 SCT025 33/23 Q1007 NOSIG
Conditions at: VERC (RANCHI , IN) observed 0830 UTC 24 June 2019
Temperature: 33.0°C (91°F)
Dewpoint: 23.0°C (73°F) [RH = 56%]
Pressure (altimeter): 29.73 inches Hg (1007.0 mb)
Winds: from the S (190 degrees) at 5 MPH (4 knots; 2.1 m/s)
Visibility: 2.49 miles (4.01 km)
Ceiling: at least 12,000 feet AGL
Clouds: scattered clouds at 1800 feet AGL
scattered clouds at 2500 feet AGL
Weather: HZ  (haze)

METAR text: VERC 240800Z 18003KT 4000 HZ SCT018 SCT025 33/23 Q1008 NOSIG
Conditions at: VERC (RANCHI , IN) observed 0800 UTC 24 June 2019
Temperature: 33.0°C (91°F)
Dewpoint: 23.0°C (73°F) [RH = 56%]
Pressure (altimeter): 29.76 inches Hg (1008.0 mb)
Winds: from the S (180 degrees) at 3 MPH (3 knots; 1.5 m/s)
Visibility: 2.49 miles (4.01 km)
Ceiling: at least 12,000 feet AGL
Clouds: scattered clouds at 1800 feet AGL
scattered clouds at 2500 feet AGL
Weather: HZ  (haze)

METAR text: VERC 240730Z 24003KT 4000 HZ SCT018 SCT025 32/24 Q1008 NOSIG
Conditions at: VERC (RANCHI , IN) observed 0730 UTC 24 June 2019
Temperature: 32.0°C (90°F)
Dewpoint: 24.0°C (75°F) [RH = 63%]
Pressure (altimeter): 29.76 inches Hg (1008.0 mb)
Winds: from the WSW (240 degrees) at 3 MPH (3 knots; 1.5 m/s)
Visibility: 2.49 miles (4.01 km)
Ceiling: at least 12,000 feet AGL
Clouds: scattered clouds at 1800 feet AGL
scattered clouds at 2500 feet AGL
Weather: HZ  (haze)

METAR text: VERC 240700Z 19006KT 4000 HZ SCT018 SCT025 32/23 Q1009 NOSIG
Conditions at: VERC (RANCHI , IN) observed 0700 UTC 24 June 2019
Temperature: 32.0°C (90°F)
Dewpoint: 23.0°C (73°F) [RH = 59%]
Pressure (altimeter): 29.79 inches Hg (1009.0 mb)
Winds: from the S (190 degrees) at 7 MPH (6 knots; 3.1 m/s)
Visibility: 2.49 miles (4.01 km)
Ceiling: at least 12,000 feet AGL
Clouds: scattered clouds at 1800 feet AGL
scattered clouds at 2500 feet AGL
Weather: HZ  (haze)

METAR text: VERC 240630Z 19004KT 4000 HZ SCT018 SCT025 32/23 Q1009 NOSIG
Conditions at: VERC (RANCHI , IN) observed 0630 UTC 24 June 2019
Temperature: 32.0°C (90°F)
Dewpoint: 23.0°C (73°F) [RH = 59%]
Pressure (altimeter): 29.79 inches Hg (1009.0 mb)
Winds: from the S (190 degrees) at 5 MPH (4 knots; 2.1 m/s)
Visibility: 2.49 miles (4.01 km)
Ceiling: at least 12,000 feet AGL
Clouds: scattered clouds at 1800 feet AGL
scattered clouds at 2500 feet AGL
Weather: HZ  (haze)

METAR text: VERC 240600Z 23004KT 4000 HZ SCT018 SCT025 32/23 Q1009 NOSIG
Conditions at: VERC (RANCHI , IN) observed 0600 UTC 24 June 2019
Temperature: 32.0°C (90°F)
Dewpoint: 23.0°C (73°F) [RH = 59%]
Pressure (altimeter): 29.79 inches Hg (1009.0 mb)
Winds: from the SW (230 degrees) at 5 MPH (4 knots; 2.1 m/s)
Visibility: 2.49 miles (4.01 km)
Ceiling: at least 12,000 feet AGL
Clouds: scattered clouds at 1800 feet AGL
scattered clouds at 2500 feet AGL
Weather: HZ  (haze)

METAR text: VERC 240530Z 20005KT 4000 HZ SCT018 SCT025 32/24 Q1009 NOSIG
Conditions at: VERC (RANCHI , IN) observed 0530 UTC 24 June 2019
Temperature: 32.0°C (90°F)
Dewpoint: 24.0°C (75°F) [RH = 63%]
Pressure (altimeter): 29.79 inches Hg (1009.0 mb)
Winds: from the SSW (200 degrees) at 6 MPH (5 knots; 2.6 m/s)
Visibility: 2.49 miles (4.01 km)
Ceiling: at least 12,000 feet AGL
Clouds: scattered clouds at 1800 feet AGL
scattered clouds at 2500 feet AGL
Weather: HZ  (haze)

METAR text: VERC 240500Z 20006KT 4000 HZ SCT018 SCT025 32/24 Q1010 NOSIG
Conditions at: VERC (RANCHI , IN) observed 0500 UTC 24 June 2019
Temperature: 32.0°C (90°F)
Dewpoint: 24.0°C (75°F) [RH = 63%]
Pressure (altimeter): 29.82 inches Hg (1010.0 mb)
Winds: from the SSW (200 degrees) at 7 MPH (6 knots; 3.1 m/s)
Visibility: 2.49 miles (4.01 km)
Ceiling: at least 12,000 feet AGL
Clouds: scattered clouds at 1800 feet AGL
scattered clouds at 2500 feet AGL
Weather: HZ  (haze)

METAR text: VERC 240430Z 20006KT 4000 HZ SCT018 SCT025 31/24 Q1010 NOSIG
Conditions at: VERC (RANCHI , IN) observed 0430 UTC 24 June 2019
Temperature: 31.0°C (88°F)
Dewpoint: 24.0°C (75°F) [RH = 66%]
Pressure (altimeter): 29.82 inches Hg (1010.0 mb)
Winds: from the SSW (200 degrees) at 7 MPH (6 knots; 3.1 m/s)
Visibility: 2.49 miles (4.01 km)
Ceiling: at least 12,000 feet AGL
Clouds: scattered clouds at 1800 feet AGL
scattered clouds at 2500 feet AGL
Weather: HZ  (haze)

METAR text: VERC 240400Z 20006KT 4000 HZ SCT018 SCT025 29/23 Q1010 NOSIG
Conditions at: VERC (RANCHI , IN) observed 0400 UTC 24 June 2019
Temperature: 29.0°C (84°F)
Dewpoint: 23.0°C (73°F) [RH = 70%]
Pressure (altimeter): 29.82 inches Hg (1010.0 mb)
Winds: from the SSW (200 degrees) at 7 MPH (6 knots; 3.1 m/s)
Visibility: 2.49 miles (4.01 km)
Ceiling: at least 12,000 feet AGL
Clouds: scattered clouds at 1800 feet AGL
scattered clouds at 2500 feet AGL
Weather: HZ  (haze)

METAR text: VERC 240330Z 20006KT 4000 HZ BKN015 29/24 Q1010 NOSIG
Conditions at: VERC (RANCHI , IN) observed 0330 UTC 24 June 2019
Temperature: 29.0°C (84°F)
Dewpoint: 24.0°C (75°F) [RH = 74%]
Pressure (altimeter): 29.82 inches Hg (1010.0 mb)
Winds: from the SSW (200 degrees) at 7 MPH (6 knots; 3.1 m/s)
Visibility: 2.49 miles (4.01 km)
Ceiling: 1500 feet AGL
Clouds: broken clouds at 1500 feet AGL
Weather: HZ  (haze)

METAR text: VERC 240300Z 20005KT 4000 HZ BKN015 SCT025 28/24 Q1010 NOSIG
Conditions at: VERC (RANCHI , IN) observed 0300 UTC 24 June 2019
Temperature: 28.0°C (82°F)
Dewpoint: 24.0°C (75°F) [RH = 79%]
Pressure (altimeter): 29.82 inches Hg (1010.0 mb)
Winds: from the SSW (200 degrees) at 6 MPH (5 knots; 2.6 m/s)
Visibility: 2.49 miles (4.01 km)
Ceiling: 1500 feet AGL
Clouds: broken clouds at 1500 feet AGL
scattered clouds at 2500 feet AGL
Weather: HZ  (haze)

METAR text: VERC 240230Z 20006KT 3000 HZ BKN015 27/24 Q1009 NOSIG
Conditions at: VERC (RANCHI , IN) observed 0230 UTC 24 June 2019
Temperature: 27.0°C (81°F)
Dewpoint: 24.0°C (75°F) [RH = 84%]
Pressure (altimeter): 29.79 inches Hg (1009.0 mb)
Winds: from the SSW (200 degrees) at 7 MPH (6 knots; 3.1 m/s)
Visibility: 1.86 miles (2.99 km)
Ceiling: 1500 feet AGL
Clouds: broken clouds at 1500 feet AGL
Weather: HZ  (haze)

METAR text: VERC 240200Z 20007KT 3000 HZ BKN015 27/24 Q1009 NOSIG
Conditions at: VERC (RANCHI , IN) observed 0200 UTC 24 June 2019
Temperature: 27.0°C (81°F)
Dewpoint: 24.0°C (75°F) [RH = 84%]
Pressure (altimeter): 29.79 inches Hg (1009.0 mb)
Winds: from the SSW (200 degrees) at 8 MPH (7 knots; 3.6 m/s)
Visibility: 1.86 miles (2.99 km)
Ceiling: 1500 feet AGL
Clouds: broken clouds at 1500 feet AGL
Weather: HZ  (haze)

METAR text: VERC 240130Z 20006KT 3000 HZ BKN015 26/24 Q1009 NOSIG
Conditions at: VERC (RANCHI , IN) observed 0130 UTC 24 June 2019
Temperature: 26.0°C (79°F)
Dewpoint: 24.0°C (75°F) [RH = 89%]
Pressure (altimeter): 29.79 inches Hg (1009.0 mb)
Winds: from the SSW (200 degrees) at 7 MPH (6 knots; 3.1 m/s)
Visibility: 1.86 miles (2.99 km)
Ceiling: 1500 feet AGL
Clouds: broken clouds at 1500 feet AGL
Weather: HZ  (haze)

METAR text: VERC 240100Z 19005KT 3000 HZ SCT015 25/23 Q1008 NOSIG
Conditions at: VERC (RANCHI , IN) observed 0100 UTC 24 June 2019
Temperature: 25.0°C (77°F)
Dewpoint: 23.0°C (73°F) [RH = 89%]
Pressure (altimeter): 29.76 inches Hg (1008.0 mb)
Winds: from the S (190 degrees) at 6 MPH (5 knots; 2.6 m/s)
Visibility: 1.86 miles (2.99 km)
Ceiling: at least 12,000 feet AGL
Clouds: scattered clouds at 1500 feet AGL
Weather: HZ  (haze)

METAR text: VERC 240030Z 18004KT 4000 HZ SCT018 BKN100 25/24 Q1008 NOSIG
Conditions at: VERC (RANCHI , IN) observed 0030 UTC 24 June 2019
Temperature: 25.0°C (77°F)
Dewpoint: 24.0°C (75°F) [RH = 94%]
Pressure (altimeter): 29.76 inches Hg (1008.0 mb)
Winds: from the S (180 degrees) at 5 MPH (4 knots; 2.1 m/s)
Visibility: 2.49 miles (4.01 km)
Ceiling: 10000 feet AGL
Clouds: scattered clouds at 1800 feet AGL
broken clouds at 10000 feet AGL
Weather: HZ  (haze)

METAR text: VERC 240000Z 18004KT 4000 HZ SCT018 BKN100 24/23 Q1007 NOSIG
Conditions at: VERC (RANCHI , IN) observed 0000 UTC 24 June 2019
Temperature: 24.0°C (75°F)
Dewpoint: 23.0°C (73°F) [RH = 94%]
Pressure (altimeter): 29.73 inches Hg (1007.0 mb)
Winds: from the S (180 degrees) at 5 MPH (4 knots; 2.1 m/s)
Visibility: 2.49 miles (4.01 km)
Ceiling: 10000 feet AGL
Clouds: scattered clouds at 1800 feet AGL
broken clouds at 10000 feet AGL
Weather: HZ  (haze)

METAR text: VERC 232300Z 18002KT 4000 HZ SCT100 24/23 Q1007 NOSIG
Conditions at: VERC (RANCHI , IN) observed 2300 UTC 23 June 2019
Temperature: 24.0°C (75°F)
Dewpoint: 23.0°C (73°F) [RH = 94%]
Pressure (altimeter): 29.73 inches Hg (1007.0 mb)
Winds: from the S (180 degrees) at 2 MPH (2 knots; 1.0 m/s)
Visibility: 2.49 miles (4.01 km)
Ceiling: at least 12,000 feet AGL
Clouds: scattered clouds at 10000 feet AGL
Weather: HZ  (haze)

METAR text: VERC 232200Z 18002KT 4000 HZ SCT100 24/23 Q1007 NOSIG
Conditions at: VERC (RANCHI , IN) observed 2200 UTC 23 June 2019
Temperature: 24.0°C (75°F)
Dewpoint: 23.0°C (73°F) [RH = 94%]
Pressure (altimeter): 29.73 inches Hg (1007.0 mb)
Winds: from the S (180 degrees) at 2 MPH (2 knots; 1.0 m/s)
Visibility: 2.49 miles (4.01 km)
Ceiling: at least 12,000 feet AGL
Clouds: scattered clouds at 10000 feet AGL
Weather: HZ  (haze)

METAR text: VERC 232100Z 00000KT 4000 HZ SCT100 24/23 Q1007 NOSIG
Conditions at: VERC (RANCHI , IN) observed 2100 UTC 23 June 2019
Temperature: 24.0°C (75°F)
Dewpoint: 23.0°C (73°F) [RH = 94%]
Pressure (altimeter): 29.73 inches Hg (1007.0 mb)
Winds: calm
Visibility: 2.49 miles (4.01 km)
Ceiling: at least 12,000 feet AGL
Clouds: scattered clouds at 10000 feet AGL
Weather: HZ  (haze)

METAR text: VERC 231900Z 00000KT 4000 HZ SCT100 25/24 Q1007 NOSIG
Conditions at: VERC (RANCHI , IN) observed 1900 UTC 23 June 2019
Temperature: 25.0°C (77°F)
Dewpoint: 24.0°C (75°F) [RH = 94%]
Pressure (altimeter): 29.73 inches Hg (1007.0 mb)
Winds: calm
Visibility: 2.49 miles (4.01 km)
Ceiling: at least 12,000 feet AGL
Clouds: scattered clouds at 10000 feet AGL
Weather: HZ  (haze)

METAR text: VERC 231800Z 00000KT 4000 HZ SCT100 26/24 Q1007 NOSIG
Conditions at: VERC (RANCHI , IN) observed 1800 UTC 23 June 2019
Temperature: 26.0°C (79°F)
Dewpoint: 24.0°C (75°F) [RH = 89%]
Pressure (altimeter): 29.73 inches Hg (1007.0 mb)
Winds: calm
Visibility: 2.49 miles (4.01 km)
Ceiling: at least 12,000 feet AGL
Clouds: scattered clouds at 10000 feet AGL
Weather: HZ  (haze)

METAR text: VERC 231730Z 14002KT 4000 HZ FEW020 SCT100 26/24 Q1007 NOSIG
Conditions at: VERC (RANCHI , IN) observed 1730 UTC 23 June 2019
Temperature: 26.0°C (79°F)
Dewpoint: 24.0°C (75°F) [RH = 89%]
Pressure (altimeter): 29.73 inches Hg (1007.0 mb)
Winds: from the SE (140 degrees) at 2 MPH (2 knots; 1.0 m/s)
Visibility: 2.49 miles (4.01 km)
Ceiling: at least 12,000 feet AGL
Clouds: few clouds at 2000 feet AGL
scattered clouds at 10000 feet AGL
Weather: HZ  (haze)

METAR text: VERC 231700Z 14002KT 4000 HZ FEW020 SCT100 26/24 Q1008 NOSIG
Conditions at: VERC (RANCHI , IN) observed 1700 UTC 23 June 2019
Temperature: 26.0°C (79°F)
Dewpoint: 24.0°C (75°F) [RH = 89%]
Pressure (altimeter): 29.76 inches Hg (1008.0 mb)
Winds: from the SE (140 degrees) at 2 MPH (2 knots; 1.0 m/s)
Visibility: 2.49 miles (4.01 km)
Ceiling: at least 12,000 feet AGL
Clouds: few clouds at 2000 feet AGL
scattered clouds at 10000 feet AGL
Weather: HZ  (haze)

METAR text: VERC 231630Z 14002KT 4000 HZ FEW020 SCT100 26/24 Q1008 NOSIG
Conditions at: VERC (RANCHI , IN) observed 1630 UTC 23 June 2019
Temperature: 26.0°C (79°F)
Dewpoint: 24.0°C (75°F) [RH = 89%]
Pressure (altimeter): 29.76 inches Hg (1008.0 mb)
Winds: from the SE (140 degrees) at 2 MPH (2 knots; 1.0 m/s)
Visibility: 2.49 miles (4.01 km)
Ceiling: at least 12,000 feet AGL
Clouds: few clouds at 2000 feet AGL
scattered clouds at 10000 feet AGL
Weather: HZ  (haze)

METAR text: VERC 231600Z 14002KT 4000 HZ FEW020 SCT100 26/24 Q1007 NOSIG
Conditions at: VERC (RANCHI , IN) observed 1600 UTC 23 June 2019
Temperature: 26.0°C (79°F)
Dewpoint: 24.0°C (75°F) [RH = 89%]
Pressure (altimeter): 29.73 inches Hg (1007.0 mb)
Winds: from the SE (140 degrees) at 2 MPH (2 knots; 1.0 m/s)
Visibility: 2.49 miles (4.01 km)
Ceiling: at least 12,000 feet AGL
Clouds: few clouds at 2000 feet AGL
scattered clouds at 10000 feet AGL
Weather: HZ  (haze)

METAR text: VERC 231530Z 14002KT 5000 HZ FEW020 SCT100 26/24 Q1007 NOSIG
Conditions at: VERC (RANCHI , IN) observed 1530 UTC 23 June 2019
Temperature: 26.0°C (79°F)
Dewpoint: 24.0°C (75°F) [RH = 89%]
Pressure (altimeter): 29.73 inches Hg (1007.0 mb)
Winds: from the SE (140 degrees) at 2 MPH (2 knots; 1.0 m/s)
Visibility: 3 miles ( 5 km)
Ceiling: at least 12,000 feet AGL
Clouds: few clouds at 2000 feet AGL
scattered clouds at 10000 feet AGL
Weather: HZ  (haze)

METAR text: VERC 231500Z 14002KT 5000 HZ FEW020 SCT100 26/24 Q1007 NOSIG
Conditions at: VERC (RANCHI , IN) observed 1500 UTC 23 June 2019
Temperature: 26.0°C (79°F)
Dewpoint: 24.0°C (75°F) [RH = 89%]
Pressure (altimeter): 29.73 inches Hg (1007.0 mb)
Winds: from the SE (140 degrees) at 2 MPH (2 knots; 1.0 m/s)
Visibility: 3 miles ( 5 km)
Ceiling: at least 12,000 feet AGL
Clouds: few clouds at 2000 feet AGL
scattered clouds at 10000 feet AGL
Weather: HZ  (haze)

METAR text: VERC 231430Z 14003KT 5000 HZ SCT020 SCT100 26/24 Q1007 NOSIG
Conditions at: VERC (RANCHI , IN) observed 1430 UTC 23 June 2019
Temperature: 26.0°C (79°F)
Dewpoint: 24.0°C (75°F) [RH = 89%]
Pressure (altimeter): 29.73 inches Hg (1007.0 mb)
Winds: from the SE (140 degrees) at 3 MPH (3 knots; 1.5 m/s)
Visibility: 3 miles ( 5 km)
Ceiling: at least 12,000 feet AGL
Clouds: scattered clouds at 2000 feet AGL
scattered clouds at 10000 feet AGL
Weather: HZ  (haze)

METAR text: VERC 231400Z 13003KT 5000 HZ SCT018 SCT025 26/25 Q1007 NOSIG
Conditions at: VERC (RANCHI , IN) observed 1400 UTC 23 June 2019
Temperature: 26.0°C (79°F)
Dewpoint: 25.0°C (77°F) [RH = 94%]
Pressure (altimeter): 29.73 inches Hg (1007.0 mb)
Winds: from the SE (130 degrees) at 3 MPH (3 knots; 1.5 m/s)
Visibility: 3 miles ( 5 km)
Ceiling: at least 12,000 feet AGL
Clouds: scattered clouds at 1800 feet AGL
scattered clouds at 2500 feet AGL
Weather: HZ  (haze)

METAR text: VERC 231330Z 14003KT 5000 HZ SCT018 SCT025 27/25 Q1006 NOSIG
Conditions at: VERC (RANCHI , IN) observed 1330 UTC 23 June 2019
Temperature: 27.0°C (81°F)
Dewpoint: 25.0°C (77°F) [RH = 89%]
Pressure (altimeter): 29.70 inches Hg (1006.0 mb)
Winds: from the SE (140 degrees) at 3 MPH (3 knots; 1.5 m/s)
Visibility: 3 miles ( 5 km)
Ceiling: at least 12,000 feet AGL
Clouds: scattered clouds at 1800 feet AGL
scattered clouds at 2500 feet AGL
Weather: HZ  (haze)

METAR text: VERC 231300Z 13003KT 5000 HZ SCT018 SCT025 27/25 Q1006 NOSIG
Conditions at: VERC (RANCHI , IN) observed 1300 UTC 23 June 2019
Temperature: 27.0°C (81°F)
Dewpoint: 25.0°C (77°F) [RH = 89%]
Pressure (altimeter): 29.70 inches Hg (1006.0 mb)
Winds: from the SE (130 degrees) at 3 MPH (3 knots; 1.5 m/s)
Visibility: 3 miles ( 5 km)
Ceiling: at least 12,000 feet AGL
Clouds: scattered clouds at 1800 feet AGL
scattered clouds at 2500 feet AGL
Weather: HZ  (haze)

METAR text: VERC 231230Z 15004KT 5000 HZ SCT018 SCT025 28/25 Q1006 NOSIG
Conditions at: VERC (RANCHI , IN) observed 1230 UTC 23 June 2019
Temperature: 28.0°C (82°F)
Dewpoint: 25.0°C (77°F) [RH = 84%]
Pressure (altimeter): 29.70 inches Hg (1006.0 mb)
Winds: from the SSE (150 degrees) at 5 MPH (4 knots; 2.1 m/s)
Visibility: 3 miles ( 5 km)
Ceiling: at least 12,000 feet AGL
Clouds: scattered clouds at 1800 feet AGL
scattered clouds at 2500 feet AGL
Weather: HZ  (haze)

METAR text: VERC 231200Z 14005KT 5000 HZ SCT018 SCT025 28/25 Q1006 NOSIG
Conditions at: VERC (RANCHI , IN) observed 1200 UTC 23 June 2019
Temperature: 28.0°C (82°F)
Dewpoint: 25.0°C (77°F) [RH = 84%]
Pressure (altimeter): 29.70 inches Hg (1006.0 mb)
Winds: from the SE (140 degrees) at 6 MPH (5 knots; 2.6 m/s)
Visibility: 3 miles ( 5 km)
Ceiling: at least 12,000 feet AGL
Clouds: scattered clouds at 1800 feet AGL
scattered clouds at 2500 feet AGL
Weather: HZ  (haze)

METAR text: VERC 231130Z 12005KT 5000 HZ SCT018 SCT025 29/24 Q1005 NOSIG
Conditions at: VERC (RANCHI , IN) observed 1130 UTC 23 June 2019
Temperature: 29.0°C (84°F)
Dewpoint: 24.0°C (75°F) [RH = 74%]
Pressure (altimeter): 29.68 inches Hg (1005.0 mb)
Winds: from the ESE (120 degrees) at 6 MPH (5 knots; 2.6 m/s)
Visibility: 3 miles ( 5 km)
Ceiling: at least 12,000 feet AGL
Clouds: scattered clouds at 1800 feet AGL
scattered clouds at 2500 feet AGL
Weather: HZ  (haze)

METAR text: VERC 231100Z 15005KT 5000 HZ SCT018 SCT025 30/24 Q1005 NOSIG
Conditions at: VERC (RANCHI , IN) observed 1100 UTC 23 June 2019
Temperature: 30.0°C (86°F)
Dewpoint: 24.0°C (75°F) [RH = 70%]
Pressure (altimeter): 29.68 inches Hg (1005.0 mb)
Winds: from the SSE (150 degrees) at 6 MPH (5 knots; 2.6 m/s)
Visibility: 3 miles ( 5 km)
Ceiling: at least 12,000 feet AGL
Clouds: scattered clouds at 1800 feet AGL
scattered clouds at 2500 feet AGL
Weather: HZ  (haze)

METAR text: VERC 231030Z 13006KT 5000 HZ SCT018 SCT025 30/24 Q1005 NOSIG
Conditions at: VERC (RANCHI , IN) observed 1030 UTC 23 June 2019
Temperature: 30.0°C (86°F)
Dewpoint: 24.0°C (75°F) [RH = 70%]
Pressure (altimeter): 29.68 inches Hg (1005.0 mb)
Winds: from the SE (130 degrees) at 7 MPH (6 knots; 3.1 m/s)
Visibility: 3 miles ( 5 km)
Ceiling: at least 12,000 feet AGL
Clouds: scattered clouds at 1800 feet AGL
scattered clouds at 2500 feet AGL
Weather: HZ  (haze)

METAR text: VERC 231000Z 15006KT 5000 HZ SCT018 SCT025 30/23 Q1005 NOSIG
Conditions at: VERC (RANCHI , IN) observed 1000 UTC 23 June 2019
Temperature: 30.0°C (86°F)
Dewpoint: 23.0°C (73°F) [RH = 66%]
Pressure (altimeter): 29.68 inches Hg (1005.0 mb)
Winds: from the SSE (150 degrees) at 7 MPH (6 knots; 3.1 m/s)
Visibility: 3 miles ( 5 km)
Ceiling: at least 12,000 feet AGL
Clouds: scattered clouds at 1800 feet AGL
scattered clouds at 2500 feet AGL
Weather: HZ  (haze)

METAR text: VERC 230930Z 14005KT 5000 HZ SCT018 SCT025 31/23 Q1005 NOSIG
Conditions at: VERC (RANCHI , IN) observed 0930 UTC 23 June 2019
Temperature: 31.0°C (88°F)
Dewpoint: 23.0°C (73°F) [RH = 63%]
Pressure (altimeter): 29.68 inches Hg (1005.0 mb)
Winds: from the SE (140 degrees) at 6 MPH (5 knots; 2.6 m/s)
Visibility: 3 miles ( 5 km)
Ceiling: at least 12,000 feet AGL
Clouds: scattered clouds at 1800 feet AGL
scattered clouds at 2500 feet AGL
Weather: HZ  (haze)

METAR text: VERC 230900Z 16005KT 5000 HZ SCT018 SCT025 31/23 Q1006 NOSIG
Conditions at: VERC (RANCHI , IN) observed 0900 UTC 23 June 2019
Temperature: 31.0°C (88°F)
Dewpoint: 23.0°C (73°F) [RH = 63%]
Pressure (altimeter): 29.70 inches Hg (1006.0 mb)
Winds: from the SSE (160 degrees) at 6 MPH (5 knots; 2.6 m/s)
Visibility: 3 miles ( 5 km)
Ceiling: at least 12,000 feet AGL
Clouds: scattered clouds at 1800 feet AGL
scattered clouds at 2500 feet AGL
Weather: HZ  (haze)

METAR text: VERC 230830Z 17005KT 5000 HZ SCT018 SCT025 32/23 Q1006 NOSIG
Conditions at: VERC (RANCHI , IN) observed 0830 UTC 23 June 2019
Temperature: 32.0°C (90°F)
Dewpoint: 23.0°C (73°F) [RH = 59%]
Pressure (altimeter): 29.70 inches Hg (1006.0 mb)
Winds: from the S (170 degrees) at 6 MPH (5 knots; 2.6 m/s)
Visibility: 3 miles ( 5 km)
Ceiling: at least 12,000 feet AGL
Clouds: scattered clouds at 1800 feet AGL
scattered clouds at 2500 feet AGL
Weather: HZ  (haze)

METAR text: VERC 230800Z 17005KT 5000 HZ SCT018 SCT025 31/24 Q1006 NOSIG
Conditions at: VERC (RANCHI , IN) observed 0800 UTC 23 June 2019
Temperature: 31.0°C (88°F)
Dewpoint: 24.0°C (75°F) [RH = 66%]
Pressure (altimeter): 29.70 inches Hg (1006.0 mb)
Winds: from the S (170 degrees) at 6 MPH (5 knots; 2.6 m/s)
Visibility: 3 miles ( 5 km)
Ceiling: at least 12,000 feet AGL
Clouds: scattered clouds at 1800 feet AGL
scattered clouds at 2500 feet AGL
Weather: HZ  (haze)

METAR text: VERC 230730Z 17005KT 5000 HZ SCT018 SCT025 31/24 Q1006 NOSIG
Conditions at: VERC (RANCHI , IN) observed 0730 UTC 23 June 2019
Temperature: 31.0°C (88°F)
Dewpoint: 24.0°C (75°F) [RH = 66%]
Pressure (altimeter): 29.70 inches Hg (1006.0 mb)
Winds: from the S (170 degrees) at 6 MPH (5 knots; 2.6 m/s)
Visibility: 3 miles ( 5 km)
Ceiling: at least 12,000 feet AGL
Clouds: scattered clouds at 1800 feet AGL
scattered clouds at 2500 feet AGL
Weather: HZ  (haze)

METAR text: VERC 230700Z 16005KT 5000 HZ SCT015 SCT025 30/24 Q1007 NOSIG
Conditions at: VERC (RANCHI , IN) observed 0700 UTC 23 June 2019
Temperature: 30.0°C (86°F)
Dewpoint: 24.0°C (75°F) [RH = 70%]
Pressure (altimeter): 29.73 inches Hg (1007.0 mb)
Winds: from the SSE (160 degrees) at 6 MPH (5 knots; 2.6 m/s)
Visibility: 3 miles ( 5 km)
Ceiling: at least 12,000 feet AGL
Clouds: scattered clouds at 1500 feet AGL
scattered clouds at 2500 feet AGL
Weather: HZ  (haze)

METAR text: VERC 230630Z 15005KT 5000 HZ SCT015 SCT025 30/24 Q1007 NOSIG
Conditions at: VERC (RANCHI , IN) observed 0630 UTC 23 June 2019
Temperature: 30.0°C (86°F)
Dewpoint: 24.0°C (75°F) [RH = 70%]
Pressure (altimeter): 29.73 inches Hg (1007.0 mb)
Winds: from the SSE (150 degrees) at 6 MPH (5 knots; 2.6 m/s)
Visibility: 3 miles ( 5 km)
Ceiling: at least 12,000 feet AGL
Clouds: scattered clouds at 1500 feet AGL
scattered clouds at 2500 feet AGL
Weather: HZ  (haze)

Forecast for: VERC (RANCHI , IN)
Text: TAF VERC 241700Z 2418/2503 21005KT 3500 HZ FEW018 SCT100
Forecast period: 1800 UTC 24 June 2019 to 0300 UTC 25 June 2019
Forecast type: FROM: standard forecast or significant change
Winds: from the SSW (210 degrees) at 6 MPH (5 knots; 2.6 m/s)
Visibility: 2.17 miles (3.49 km)
Ceiling: at least 12,000 feet AGL
Clouds: few clouds at 1800 feet AGL
scattered clouds at 10000 feet AGL
Weather: HZ  (haze)